WEERSPREUK VAN DE DAG: Houden de kraaien voor Allerheiligen al school, zorg dan voor hout en kool.
Het weer levert geen direct gevaar op.    Er zijn geen waarschuwingen afgegeven.


Onweer radar Meer informatie blitzortung!


Regen radar Meer informatie rain snow radar


Bekijk deze sites ook eens:

FPL Automotive (TIP)

Autostekkers.nl (TIP)

Over Luyksgestel

BOL.com

Weerstation Noordbergum

Inktweb

Drone kopen?

Weerstation Hapert

Parfumswinkel TIP

Weerstation Hoogeloon

Dronepilots Droneforum

Weerstation Son&Breugel

Weerstation Castaert

Kamera Express

Smartphonehoesjes

Weerstation Tilburg Reeshof

Weerstation Scheulder

Samostour webcams

Weerverwachting Samos

Samos actueel

Weerwoord (forum)

Griekenlandforum

Vakantie naar Samos

Zomerzon

Alpen weerman

Wintersport weerman

Sneeuwhoogte.nl

Canon

Webcams Gargellen

Lampen koopjeshoek



Weather Underground Historische gegevens

Dagelijkse Samenvatting oktober 21, 2018 Eenheden:  Metrisch    Engels   Beide
« Vorige Dag
Volgende Dag »
Dagelijkse Wekelijkse Maandelijkse Jaarlijkse Aangepaste
  Huidig: Hoog: Laag: Gemiddeld:
Temperatuur: -12.2 °C -17.8 °C -16.5 °C -12.7 °C
Dauwpunt: -13.4 °C -17.8 °C -17.2 °C -14.7 °C
Vochtigheid: 86 % Humidity % 54 % 80 %
Wind snelheid: 0 km/h 0 km/h 0 km/h 0.6 km/h
Windvlaag: 0 km/h 0 km/h - -
Wind:Calm - - East
Luchtdruk: 34726.8 hPa 0 hPa 34703.1 hPa -
Neerslag: 0 mm      
Historical Graphs
 
 
Tabel voor oktober 21, 2018
Tijd Temperatuur Dauwpunt Luchtdruk Wind Wind snelheid Windvlaag Vochtigheid Regenval per uur
-17.8 °C -17.8 °C 0 hPa Calm     Humidity % 0 mm
00:00 -15.4 °C -16.4 °C 34865.6 hPa Calm     88 % 0 mm
00:05 -15.4 °C -16.4 °C 34865.6 hPa Calm     89 % 0 mm
00:10 -15.4 °C -16.4 °C 34865.6 hPa Calm     89 % 0 mm
00:15 -15.4 °C -16.4 °C 34852.1 hPa Calm     89 % 0 mm
00:20 -15.4 °C -16.4 °C 34852.1 hPa Calm     89 % 0 mm
00:26 -15.5 °C -16.4 °C 34852.1 hPa Calm     89 % 0 mm
00:31 -15.5 °C -16.4 °C 34852.1 hPa Calm     89 % 0 mm
00:36 -15.5 °C -16.4 °C 34852.1 hPa Calm     89 % 0 mm
00:41 -15.5 °C -16.4 °C 34852.1 hPa Calm     89 % 0 mm
00:47 -15.6 °C -16.4 °C 34852.1 hPa Calm     89 % 0 mm
00:52 -15.6 °C -16.4 °C 34852.1 hPa Calm     89 % 0 mm
00:57 -15.6 °C -16.5 °C 34852.1 hPa Calm     89 % 0 mm
01:02 -15.6 °C -16.5 °C 34852.1 hPa Calm     89 % 0 mm
01:07 -15.7 °C -16.5 °C 34852.1 hPa Calm     90 % 0 mm
01:13 -15.7 °C -16.5 °C 34852.1 hPa Calm     90 % 0 mm
01:18 -15.7 °C -16.5 °C 34852.1 hPa Calm     90 % 0 mm
01:23 -15.7 °C -16.6 °C 34852.1 hPa Calm     90 % 0 mm
01:28 -15.8 °C -16.6 °C 34852.1 hPa Calm     90 % 0 mm
01:34 -15.8 °C -16.6 °C 34852.1 hPa Calm     90 % 0 mm
01:39 -15.8 °C -16.6 °C 34852.1 hPa Calm     90 % 0 mm
01:44 -15.8 °C -16.6 °C 34852.1 hPa Calm     90 % 0 mm
01:49 -15.8 °C -16.6 °C 34852.1 hPa Calm     90 % 0 mm
01:55 -15.8 °C -16.6 °C 34852.1 hPa Calm     90 % 0 mm
02:00 -15.8 °C -16.6 °C 34852.1 hPa Calm     90 % 0 mm
02:05 -15.8 °C -16.7 °C 34852.1 hPa Calm     90 % 0 mm
02:10 -15.9 °C -16.7 °C 34852.1 hPa Calm     90 % 0 mm
02:15 -15.9 °C -16.7 °C 34852.1 hPa Calm     90 % 0 mm
02:20 -15.9 °C -16.7 °C 34852.1 hPa Calm     90 % 0 mm
02:25 -15.9 °C -16.6 °C 34852.1 hPa Calm     91 % 0 mm
02:31 -15.9 °C -16.7 °C 34841.9 hPa Calm     90 % 0 mm
02:36 -15.9 °C -16.8 °C 34841.9 hPa Calm     90 % 0 mm
02:41 -15.9 °C -16.8 °C 34841.9 hPa Calm     90 % 0 mm
02:46 -15.9 °C -16.7 °C 34841.9 hPa Calm     91 % 0 mm
02:51 -15.9 °C -16.7 °C 34841.9 hPa Calm     91 % 0 mm
02:57 -16 °C -16.7 °C 34841.9 hPa Calm     91 % 0 mm
03:02 -16 °C -16.7 °C 34831.8 hPa Calm     91 % 0 mm
03:07 -16 °C -16.7 °C 34831.8 hPa Calm     91 % 0 mm
03:13 -16.1 °C -16.8 °C 34831.8 hPa Calm     91 % 0 mm
03:19 -16.1 °C -16.8 °C 34841.9 hPa Calm     91 % 0 mm
03:24 -16.1 °C -16.8 °C 34841.9 hPa Calm     91 % 0 mm
03:30 -16.1 °C -16.8 °C 34831.8 hPa Calm     91 % 0 mm
03:35 -16.1 °C -16.8 °C 34831.8 hPa Calm     91 % 0 mm
03:40 -16.2 °C -16.9 °C 34831.8 hPa Calm     91 % 0 mm
03:46 -16.2 °C -16.9 °C 34831.8 hPa Calm     91 % 0 mm
03:51 -16.2 °C -16.9 °C 34831.8 hPa Calm   2.6 km/h 91 % 0 mm
03:56 -16.2 °C -16.9 °C 34831.8 hPa NW 2.3 km/h 2.6 km/h 91 % 0 mm
04:01 -16.2 °C -16.9 °C 34831.8 hPa Calm     91 % 0 mm
04:06 -16.2 °C -16.9 °C 34831.8 hPa Calm     91 % 0 mm
04:11 -16.2 °C -16.9 °C 34831.8 hPa Calm     91 % 0 mm
04:16 -16.2 °C -16.9 °C 34818.2 hPa Calm     91 % 0 mm
04:21 -16.2 °C -16.9 °C 34818.2 hPa Calm     91 % 0 mm
04:26 -16.2 °C -16.9 °C 34818.2 hPa Calm     91 % 0 mm
04:32 -16.3 °C -17 °C 34818.2 hPa Calm     91 % 0 mm
04:37 -16.3 °C -16.9 °C 34818.2 hPa Calm     92 % 0 mm
04:42 -16.3 °C -16.9 °C 34818.2 hPa Calm     92 % 0 mm
04:48 -16.3 °C -16.9 °C 34818.2 hPa Calm     92 % 0 mm
04:53 -16.3 °C -16.9 °C 34818.2 hPa Calm     92 % 0 mm
04:58 -16.3 °C -17 °C 34818.2 hPa Calm     92 % 0 mm
05:03 -16.3 °C -17 °C 34818.2 hPa Calm     92 % 0 mm
05:08 -16.3 °C -17 °C 34818.2 hPa Calm     92 % 0 mm
05:13 -16.3 °C -17 °C 34818.2 hPa Calm     92 % 0 mm
05:19 -16.4 °C -17.1 °C 34818.2 hPa Calm     92 % 0 mm
05:24 -16.4 °C -17.1 °C 34818.2 hPa Calm   2.6 km/h 92 % 0 mm
05:30 -16.4 °C -17.1 °C 34818.2 hPa Calm     92 % 0 mm
05:35 -16.4 °C -17.1 °C 34818.2 hPa Calm     92 % 0 mm
05:40 -16.4 °C -17.1 °C 34818.2 hPa Calm     92 % 0 mm
05:45 -16.5 °C -17.2 °C 34818.2 hPa Calm     92 % 0 mm
05:50 -16.5 °C -17.2 °C 34818.2 hPa Calm     92 % 0 mm
05:55 -16.5 °C -17.2 °C 34818.2 hPa Calm     92 % 0 mm
06:01 -16.5 °C -17.2 °C 34818.2 hPa Calm     92 % 0 mm
06:06 -16.5 °C -17.2 °C 34818.2 hPa Calm     92 % 0 mm
06:11 -16.5 °C -17.2 °C 34818.2 hPa Calm     92 % 0 mm
06:16 -16.5 °C -17.2 °C 34818.2 hPa Calm     92 % 0 mm
06:21 -16.4 °C -17.1 °C 34818.2 hPa Calm     92 % 0 mm
06:26 -16.4 °C -17.1 °C 34818.2 hPa NW 2.3 km/h 2.6 km/h 92 % 0 mm
06:31 -16.3 °C -16.8 °C 34818.2 hPa Calm   2.6 km/h 93 % 0 mm
06:37 -16.2 °C -16.7 °C 34818.2 hPa Calm     93 % 0 mm
06:42 -16.1 °C -16.7 °C 34818.2 hPa NW 2.3 km/h 5.1 km/h 93 % 0 mm
06:47 -16 °C -16.6 °C 34808.1 hPa Calm     93 % 0 mm
06:52 -15.9 °C -16.5 °C 34808.1 hPa Calm     93 % 0 mm
06:57 -15.9 °C -16.5 °C 34808.1 hPa Calm     93 % 0 mm
07:02 -15.9 °C -16.5 °C 34797.9 hPa Calm     93 % 0 mm
07:08 -15.9 °C -16.5 °C 34797.9 hPa Calm   2.6 km/h 93 % 0 mm
07:13 -15.9 °C -16.4 °C 34797.9 hPa Calm     93 % 0 mm
07:18 -15.9 °C -16.4 °C 34797.9 hPa NW 2.3 km/h 2.6 km/h 93 % 0 mm
07:23 -15.8 °C -16.3 °C 34797.9 hPa Calm     93 % 0 mm
07:28 -15.8 °C -16.3 °C 34797.9 hPa Calm     93 % 0 mm
07:33 -15.7 °C -16.3 °C 34797.9 hPa Calm     93 % 0 mm
07:38 -15.7 °C -16.3 °C 34797.9 hPa Calm     93 % 0 mm
07:44 -15.7 °C -16.3 °C 34797.9 hPa Calm     93 % 0 mm
07:49 -15.7 °C -16.3 °C 34797.9 hPa Calm     93 % 0 mm
07:54 -15.7 °C -16.3 °C 34797.9 hPa Calm     93 % 0 mm
07:59 -15.7 °C -16.3 °C 34797.9 hPa Calm   2.6 km/h 93 % 0 mm
08:04 -15.7 °C -16.3 °C 34797.9 hPa Calm     93 % 0 mm
08:09 -15.8 °C -16.3 °C 34797.9 hPa Calm     93 % 0 mm
08:14 -15.8 °C -16.3 °C 34797.9 hPa Calm     93 % 0 mm
08:20 -15.8 °C -16.3 °C 34797.9 hPa Calm     93 % 0 mm
08:25 -15.8 °C -16.4 °C 34797.9 hPa Calm     93 % 0 mm
08:30 -15.8 °C -16.4 °C 34797.9 hPa Calm     93 % 0 mm
08:35 -15.8 °C -16.4 °C 34797.9 hPa Calm     93 % 0 mm
08:40 -15.8 °C -16.4 °C 34797.9 hPa Calm     93 % 0 mm
08:46 -15.8 °C -16.4 °C 34797.9 hPa Calm     93 % 0 mm
08:51 -15.8 °C -16.3 °C 34797.9 hPa Calm     93 % 0 mm
08:56 -15.8 °C -16.3 °C 34797.9 hPa Calm     93 % 0 mm
09:01 -15.8 °C -16.3 °C 34797.9 hPa Calm     93 % 0 mm
09:06 -15.7 °C -16.3 °C 34797.9 hPa Calm     93 % 0 mm
09:11 -15.7 °C -16.2 °C 34797.9 hPa Calm     93 % 0 mm
09:16 -15.6 °C -16.1 °C 34808.1 hPa Calm   2.6 km/h 94 % 0 mm
09:21 -15.5 °C -16 °C 34808.1 hPa Calm   2.6 km/h 94 % 0 mm
09:26 -15.4 °C -15.9 °C 34808.1 hPa Calm     94 % 0 mm
09:32 -15.3 °C -15.8 °C 34818.2 hPa Calm     94 % 0 mm
09:37 -15.1 °C -15.6 °C 34818.2 hPa Calm     94 % 0 mm
09:42 -14.9 °C -15.3 °C 34818.2 hPa Calm   2.6 km/h 95 % 0 mm
09:47 -14.7 °C -15.1 °C 34818.2 hPa Calm     95 % 0 mm
09:52 -14.4 °C -14.8 °C 34818.2 hPa Calm     95 % 0 mm
09:57 -14 °C -14.4 °C 34818.2 hPa Calm   2.6 km/h 95 % 0 mm
10:02 -13.7 °C -14.1 °C 34818.2 hPa Calm   2.6 km/h 95 % 0 mm
10:08 -13.4 °C -13.9 °C 34818.2 hPa Calm     94 % 0 mm
10:13 -13.2 °C -13.8 °C 34818.2 hPa Calm   2.6 km/h 93 % 0 mm
10:18 -12.9 °C -13.8 °C 34818.2 hPa Calm     90 % 0 mm
10:23 -12.6 °C -13.7 °C 34818.2 hPa Calm   2.6 km/h 88 % 0 mm
10:28 -12.4 °C -13.5 °C 34818.2 hPa Calm   2.6 km/h 88 % 0 mm
10:33 -12.3 °C -13.5 °C 34818.2 hPa Calm   2.6 km/h 87 % 0 mm
10:38 -12.2 °C -13.4 °C 34818.2 hPa Calm     86 % 0 mm
10:43 -12.1 °C -13.4 °C 34818.2 hPa Calm   2.6 km/h 85 % 0 mm
10:48 -12.1 °C -13.4 °C 34818.2 hPa North 2.3 km/h 2.6 km/h 85 % 0 mm
10:53 -11.9 °C -13.2 °C 34818.2 hPa North 5.1 km/h 5.1 km/h 85 % 0 mm
10:58 -11.8 °C -13.3 °C 34818.2 hPa North 7.6 km/h 7.7 km/h 84 % 0 mm
11:04 -11.8 °C -13.1 °C 34818.2 hPa North 2.3 km/h 10.3 km/h 85 % 0 mm
11:09 -11.7 °C -13.1 °C 34818.2 hPa Calm   2.6 km/h 85 % 0 mm
11:14 -11.5 °C -12.9 °C 34818.2 hPa Calm   5.1 km/h 84 % 0 mm
11:19 -11.3 °C -13.2 °C 34818.2 hPa Calm   2.6 km/h 80 % 0 mm
11:24 -11 °C -12.8 °C 34818.2 hPa Calm   5.1 km/h 80 % 0 mm
11:29 -10.7 °C -12.9 °C 34818.2 hPa Calm   5.1 km/h 77 % 0 mm
11:34 -10.4 °C -12.6 °C 34818.2 hPa ENE 2.3 km/h 7.7 km/h 77 % 0 mm
11:39 -10.3 °C -12.8 °C 34818.2 hPa SE 5.1 km/h 12.9 km/h 74 % 0 mm
11:44 -10.1 °C -12.8 °C 34808.1 hPa SE 2.3 km/h 5.1 km/h 73 % 0 mm
11:49 -9.9 °C -12.6 °C 34808.1 hPa NE 2.3 km/h 7.7 km/h 73 % 0 mm
11:54 -9.9 °C -12.7 °C 34808.1 hPa NE 7.6 km/h 7.7 km/h 72 % 0 mm
11:59 -9.8 °C -12.7 °C 34808.1 hPa Calm   2.6 km/h 71 % 0 mm
12:05 -9.8 °C -12.8 °C 34808.1 hPa ESE 5.1 km/h 12.9 km/h 70 % 0 mm
12:10 -9.6 °C -12.6 °C 34808.1 hPa SE 5.1 km/h 10.3 km/h 70 % 0 mm
12:15 -9.6 °C -12.6 °C 34797.9 hPa North 5.1 km/h 12.9 km/h 70 % 0 mm
12:20 -9.4 °C -12.7 °C 34797.9 hPa East 5.1 km/h 5.1 km/h 68 % 0 mm
12:25 -9.4 °C -12.7 °C 34797.9 hPa ENE 2.3 km/h 12.9 km/h 68 % 0 mm
12:30 -9.4 °C -12.5 °C 34797.9 hPa NE 2.3 km/h 10.3 km/h 69 % 0 mm
12:35 -9.4 °C -12.8 °C 34797.9 hPa NE 2.3 km/h 5.1 km/h 67 % 0 mm
12:40 -9.4 °C -13 °C 34797.9 hPa Calm   12.9 km/h 65 % 0 mm
12:45 -9.4 °C -12.9 °C 34797.9 hPa SE 5.1 km/h 12.9 km/h 66 % 0 mm
12:50 -9.4 °C -13 °C 34797.9 hPa Calm   5.1 km/h 65 % 0 mm
12:55 -9.3 °C -13.1 °C 34797.9 hPa SSE 5.1 km/h 12.9 km/h 64 % 0 mm
13:00 -9.3 °C -12.9 °C 34797.9 hPa Calm   2.6 km/h 65 % 0 mm
13:05 -9.2 °C -12.7 °C 34797.9 hPa NE 5.1 km/h 7.7 km/h 66 % 0 mm
13:10 -9.2 °C -12.7 °C 34797.9 hPa Calm   12.9 km/h 66 % 0 mm
13:15 -9.2 °C -12.8 °C 34784.4 hPa Calm   7.7 km/h 65 % 0 mm
13:20 -9.2 °C -12.8 °C 34784.4 hPa NE 2.3 km/h 7.7 km/h 65 % 0 mm
13:25 -9.2 °C -12.7 °C 34784.4 hPa North 2.3 km/h 5.1 km/h 66 % 0 mm
13:30 -9.2 °C -12.9 °C 34774.2 hPa Calm   2.6 km/h 64 % 0 mm
13:35 -9.1 °C -12.9 °C 34774.2 hPa Calm   5.1 km/h 64 % 0 mm
13:40 -9.2 °C -12.8 °C 34774.2 hPa Calm   5.1 km/h 65 % 0 mm
13:45 -9.1 °C -12.6 °C 34774.2 hPa Calm   10.3 km/h 66 % 0 mm
13:50 -8.9 °C -12.3 °C 34774.2 hPa ENE 2.3 km/h 7.7 km/h 67 % 0 mm
13:55 -8.8 °C -12.2 °C 34774.2 hPa ENE 7.6 km/h 10.3 km/h 67 % 0 mm
14:00 -8.7 °C -12.5 °C 34760.7 hPa Calm   5.1 km/h 64 % 0 mm
14:06 -8.5 °C -12.7 °C 34760.7 hPa NE 2.3 km/h 2.6 km/h 61 % 0 mm
14:11 -8.4 °C -12.8 °C 34760.7 hPa NE 2.3 km/h 2.6 km/h 60 % 0 mm
14:16 -8.4 °C -12.3 °C 34760.7 hPa NE 2.3 km/h 2.6 km/h 63 % 0 mm
14:21 -8.3 °C -12.3 °C 34760.7 hPa ENE 5.1 km/h 5.1 km/h 62 % 0 mm
14:26 -8.1 °C -12.4 °C 34760.7 hPa ENE 5.1 km/h 10.3 km/h 60 % 0 mm
14:31 -8 °C -12.8 °C 34750.5 hPa East 2.3 km/h 12.9 km/h 57 % 0 mm
14:36 -8.1 °C -12.7 °C 34750.5 hPa SE 5.1 km/h 5.1 km/h 58 % 0 mm
14:41 -8.2 °C -12.7 °C 34750.5 hPa Calm   2.6 km/h 59 % 0 mm
14:46 -8.1 °C -12.9 °C 34750.5 hPa ENE 2.3 km/h 15.6 km/h 57 % 0 mm
14:51 -8 °C -12.8 °C 34750.5 hPa Calm   10.3 km/h 57 % 0 mm
14:56 -8.1 °C -12.7 °C 34750.5 hPa Calm   5.1 km/h 58 % 0 mm
15:01 -7.9 °C -13 °C 34740.4 hPa SSE 5.1 km/h 12.9 km/h 55 % 0 mm
15:06 -7.9 °C -12.9 °C 34740.4 hPa Calm   5.1 km/h 56 % 0 mm
15:11 -7.9 °C -12.8 °C 34740.4 hPa Calm   5.1 km/h 56 % 0 mm
15:16 -7.8 °C -12.9 °C 34740.4 hPa East 5.1 km/h 5.1 km/h 55 % 0 mm
15:21 -7.9 °C -12.6 °C 34740.4 hPa Calm   2.6 km/h 58 % 0 mm
15:26 -8 °C -13.1 °C 34740.4 hPa SE 5.1 km/h 10.3 km/h 55 % 0 mm
15:31 -8.2 °C -13 °C 34740.4 hPa Calm   10.3 km/h 57 % 0 mm
15:36 -8.4 °C -13.2 °C 34740.4 hPa Calm   5.1 km/h 57 % 0 mm
15:41 -8.4 °C -12.7 °C 34740.4 hPa Calm   2.6 km/h 60 % 0 mm
15:46 -8.4 °C -13 °C 34740.4 hPa Calm   5.1 km/h 58 % 0 mm
15:51 -8.3 °C -12.8 °C 34740.4 hPa ENE 2.3 km/h 5.1 km/h 59 % 0 mm
15:57 -8.3 °C -12.8 °C 34740.4 hPa Calm   5.1 km/h 59 % 0 mm
16:02 -8.3 °C -13.1 °C 34726.8 hPa Calm   7.7 km/h 57 % 0 mm
16:07 -8.2 °C -12.6 °C 34726.8 hPa Calm   12.9 km/h 60 % 0 mm
16:12 -8.2 °C -12.3 °C 34726.8 hPa East 5.1 km/h 5.1 km/h 62 % 0 mm
16:17 -8.2 °C -12.5 °C 34726.8 hPa ESE 2.3 km/h 12.9 km/h 60 % 0 mm
16:22 -8.1 °C -12.7 °C 34726.8 hPa ESE 2.3 km/h 7.7 km/h 58 % 0 mm
16:27 -8.1 °C -13.1 °C 34726.8 hPa ESE 2.3 km/h 10.3 km/h 55 % 0 mm
16:32 -8.1 °C -13.3 °C 34726.8 hPa ESE 2.3 km/h 5.1 km/h 54 % 0 mm
16:38 -8.1 °C -13.1 °C 34726.8 hPa Calm   2.6 km/h 56 % 0 mm
16:43 -8.2 °C -13.2 °C 34726.8 hPa Calm     55 % 0 mm
16:48 -8.2 °C -12.7 °C 34726.8 hPa Calm   2.6 km/h 59 % 0 mm
16:53 -8.2 °C -12.8 °C 34726.8 hPa ESE 2.3 km/h 5.1 km/h 58 % 0 mm
16:58 -8.2 °C -13.3 °C 34716.7 hPa Calm   2.6 km/h 55 % 0 mm
17:03 -8.2 °C -13.2 °C 34716.7 hPa Calm   2.6 km/h 55 % 0 mm
17:08 -8.2 °C -13.1 °C 34716.7 hPa Calm     56 % 0 mm
17:13 -8.3 °C -12.9 °C 34703.1 hPa Calm     58 % 0 mm
17:18 -8.4 °C -13.1 °C 34703.1 hPa Calm     58 % 0 mm
17:23 -8.6 °C -13 °C 34703.1 hPa Calm   5.1 km/h 59 % 0 mm
17:29 -8.6 °C -12.9 °C 34703.1 hPa Calm   2.6 km/h 60 % 0 mm
17:34 -8.7 °C -13.2 °C 34703.1 hPa Calm   2.6 km/h 59 % 0 mm
17:39 -8.8 °C -13.1 °C 34703.1 hPa Calm     60 % 0 mm
17:44 -8.8 °C -13.1 °C 34703.1 hPa Calm     60 % 0 mm
17:49 -8.8 °C -13.2 °C 34703.1 hPa Calm     60 % 0 mm
17:54 -8.8 °C -13 °C 34703.1 hPa Calm     61 % 0 mm
17:59 -8.9 °C -13.1 °C 34703.1 hPa Calm   2.6 km/h 61 % 0 mm
18:04 -9.1 °C -13.1 °C 34703.1 hPa Calm     62 % 0 mm
18:09 -9.1 °C -13 °C 34703.1 hPa Calm   2.6 km/h 63 % 0 mm
18:15 -9.3 °C -13.2 °C 34703.1 hPa Calm     63 % 0 mm
18:20 -9.4 °C -13.2 °C 34703.1 hPa Calm     64 % 0 mm
18:25 -9.6 °C -13.2 °C 34703.1 hPa Calm     65 % 0 mm
18:30 -9.7 °C -13.2 °C 34703.1 hPa Calm     66 % 0 mm
18:35 -9.9 °C -13.2 °C 34703.1 hPa Calm     67 % 0 mm
18:40 -10.1 °C -13.3 °C 34703.1 hPa Calm     68 % 0 mm
18:45 -10.2 °C -13.3 °C 34703.1 hPa Calm     69 % 0 mm
18:50 -10.4 °C -13.4 °C 34703.1 hPa Calm     70 % 0 mm
18:55 -10.5 °C -13.3 °C 34703.1 hPa Calm     71 % 0 mm
19:00 -10.7 °C -13.5 °C 34703.1 hPa Calm     71 % 0 mm
19:06 -10.8 °C -13.5 °C 34703.1 hPa Calm     72 % 0 mm
19:11 -10.9 °C -13.6 °C 34703.1 hPa Calm     73 % 0 mm
19:16 -11.1 °C -13.6 °C 34703.1 hPa Calm     74 % 0 mm
19:21 -11.2 °C -13.7 °C 34703.1 hPa Calm     74 % 0 mm
19:26 -11.3 °C -13.7 °C 34703.1 hPa Calm     75 % 0 mm
19:31 -11.4 °C -13.7 °C 34703.1 hPa Calm     76 % 0 mm
19:36 -11.6 °C -13.8 °C 34703.1 hPa Calm     76 % 0 mm
19:41 -11.7 °C -13.8 °C 34703.1 hPa Calm     77 % 0 mm
19:46 -11.8 °C -13.9 °C 34703.1 hPa Calm     77 % 0 mm
19:51 -11.8 °C -14 °C 34703.1 hPa Calm     77 % 0 mm
19:56 -12 °C -14.1 °C 34703.1 hPa Calm     78 % 0 mm
20:01 -12.1 °C -14.1 °C 34703.1 hPa Calm     78 % 0 mm
20:06 -12.1 °C -14.1 °C 34703.1 hPa Calm     79 % 0 mm
20:11 -12.2 °C -14.1 °C 34703.1 hPa Calm     79 % 0 mm
20:16 -12.3 °C -14.1 °C 34703.1 hPa Calm     80 % 0 mm
20:21 -12.3 °C -14.2 °C 34703.1 hPa Calm     80 % 0 mm
20:27 -12.4 °C -14.3 °C 34703.1 hPa Calm     80 % 0 mm
20:32 -12.6 °C -14.3 °C 34703.1 hPa Calm     81 % 0 mm
20:37 -12.6 °C -14.3 °C 34703.1 hPa Calm   2.6 km/h 81 % 0 mm
20:42 -12.7 °C -14.3 °C 34703.1 hPa Calm     82 % 0 mm
20:47 -12.7 °C -14.3 °C 34703.1 hPa Calm     82 % 0 mm
20:52 -12.7 °C -14.2 °C 34703.1 hPa Calm     83 % 0 mm
20:57 -12.8 °C -14.3 °C 34703.1 hPa Calm     83 % 0 mm
21:03 -12.8 °C -14.3 °C 34703.1 hPa Calm     83 % 0 mm
21:08 -12.8 °C -14.3 °C 34703.1 hPa Calm     84 % 0 mm
21:13 -12.9 °C -14.3 °C 34703.1 hPa Calm     84 % 0 mm
21:18 -12.9 °C -14.3 °C 34703.1 hPa Calm     84 % 0 mm
21:23 -12.9 °C -14.3 °C 34703.1 hPa Calm   2.6 km/h 84 % 0 mm
21:28 -12.8 °C -14.2 °C 34716.7 hPa Calm     85 % 0 mm
21:33 -12.8 °C -14.1 °C 34716.7 hPa ESE 2.3 km/h 2.6 km/h 85 % 0 mm
21:38 -12.7 °C -14.1 °C 34716.7 hPa Calm     85 % 0 mm
21:44 -12.7 °C -13.9 °C 34716.7 hPa Calm     86 % 0 mm
21:49 -12.6 °C -13.8 °C 34716.7 hPa Calm     86 % 0 mm
21:54 -12.6 °C -13.8 °C 34716.7 hPa Calm     86 % 0 mm
21:59 -12.6 °C -13.8 °C 34716.7 hPa ESE 2.3 km/h 2.6 km/h 86 % 0 mm
22:04 -12.4 °C -13.7 °C 34716.7 hPa Calm     86 % 0 mm
22:09 -12.4 °C -13.6 °C 34716.7 hPa Calm     86 % 0 mm
22:14 -12.3 °C -13.7 °C 34716.7 hPa Calm     85 % 0 mm
22:19 -12.3 °C -13.7 °C 34716.7 hPa Calm     85 % 0 mm
22:24 -12.3 °C -13.7 °C 34716.7 hPa Calm     85 % 0 mm
22:30 -12.3 °C -13.6 °C 34726.8 hPa Calm     85 % 0 mm
22:35 -12.2 °C -13.6 °C 34726.8 hPa Calm     85 % 0 mm
22:40 -12.2 °C -13.4 °C 34726.8 hPa Calm     86 % 0 mm
22:45 -12.2 °C -13.4 °C 34726.8 hPa Calm     86 % 0 mm
Weerstation Luyksgestel
Gegevens verzameld door Weather Underground - 4 mb

Script ontwikkeld door  Jim McMurry - jmcmurry@mwt.net Aangepast voor de template door  Wim van der Kuil - Leuven-Template.eu

U vindt ons ook hier:

Het Weer Aktueel

UK Metoffice

European Weather Network

Weather Underground

AWEKAS